Choose a state:
Most recent flow and stage for Iowa
(Stations highlighted in red are currently above flood stage)
USGS
station
ID
USGS station name NWS
flood
stage
(ft)
Most recent
stage
(ft)
Most recent
flow
(cfs)
Historical
peaks
(cfs)
Most recent
local
date/time
NWS
station
ID
05387320 Upper Iowa River at Lime Springs, IA 11 5.62

 

  2016-09-30 11:00:00 LSPI4
05387405 Upper Iowa River at Kendallville, IA 11 5.79

 

  2016-09-30 11:00:00 KDVI4
05387440 Upper Iowa River at Bluffton, IA 14 5.37 1,210 16,600 2016-09-30 10:45:00 BLFI4
05387490 Dry Run Creek near Decorah, IA 19 15.96

 

5,820 2016-09-30 10:45:00 DRCI4
05387500 Upper Iowa River at Decorah, IA 12 3.90 1,410 34,100 2016-09-30 10:45:00 DEHI4
05388250 Upper Iowa River near Dorchester, IA 14 10.09 2,610 31,200 2016-09-30 10:00:00 DCHI4
05388310 Waterloo Creek near Dorchester, IA 10 7.37

 

9,720 2016-09-30 11:00:00  
05389000 Yellow River near Ion, IA   6.67 662 21,200 2016-09-30 10:45:00 YRII4
05389400 Bloody Run Creek near Marquette, IA   4.39 47 4,620 2016-09-30 10:00:00 MBRI4
05389500 Mississippi River at McGregor, IA 16 16.64 21,700 276,000 2016-09-30 10:15:00 MCGI4
05411500 Mississippi River at Clayton, IA   18.93

 

  2016-09-30 10:45:00 CLAI4
05411600 Turkey River at Spillville, IA 9 3.74 500 10,000 2016-09-30 10:30:00 SPLI4
05411850 Turkey River near Eldorado, IA 13 8.52 1,860 50,100 2016-09-30 10:45:00 EDRI4
05411900 Otter Creek at Elgin, IA   3.18 72   2016-09-30 10:00:00  
05412020 Turkey River above French Hollow Cr at Elkader, IA 12 9.10 3,550 40,500 2016-09-30 10:45:00 EKDI4
05412400 Volga River at Littleport, IA 12 5.97 677 30,000 2016-09-30 10:45:00 VLPI4
05412500 Turkey River at Garber, IA 17 11.01 3,930 66,700 2016-09-30 10:15:00 GRBI4
05414400 Middle Fk Little Maquoketa R nr Rickardsville, IA   9.94

 

23,000 2016-09-30 10:30:00  
05416900 Maquoketa River at Manchester, IA 14 5.75 544 26,600 2016-09-30 10:15:00 MCHI4
05418400 North Fork Maquoketa River near Fulton, IA 12 4.46 686 25,000 2016-09-30 10:00:00 FLNI4
05418500 Maquoketa River near Maquoketa, IA 24 13.87 2,690 48,000 2016-09-30 10:15:00 MAQI4
05418720 Maquoketa River near Green Island, IA   11.61 Bkw 9,880 2016-09-30 10:00:00  
05420400 Mississippi River at Lock and Dam 13 nr Fulton, IL 16 15.46

 

  2016-09-30 10:30:00 FLTI2
05420460 Beaver Slough at 3rd Street at Clinton, IA   20.06

 

62,100 2016-09-30 10:15:00 CBSI4
05420500 Mississippi River at Clinton, IA 17 17.22 150,000 307,000 2016-09-30 10:30:00 CMMI4
05420680 Wapsipinicon River near Tripoli, IA 15 11.84 1,020 19,400 2016-09-30 10:45:00 TPLI4
05420850 Little Wapsipinicon River near Oran, IA   83.41

 

12,800 2016-09-30 10:15:00  
05421000 Wapsipinicon River at Independence, IA 12 8.20 4,660 31,100 2016-09-30 10:30:00 IDPI4
05421740 Wapsipinicon River near Anamosa, IA 14.5 16.37 11,500 31,800 2016-09-30 10:15:00 ANSI4
05421760 Wapsipinicon River at Oxford Mills, IA   13.51

 

23,200 2016-09-30 10:30:00 OXJI4
05421890 Silver Creek at Welton, IA   81.30

 

4,820 2016-09-30 11:00:00  
05422000 Wapsipinicon River near De Witt, IA 11 13.78 29,300 40,900 2016-09-30 10:30:00 DEWI4
05422470 Crow Creek at Bettendorf, IA   3.68 5.2 7,700 2016-09-30 10:00:00 CRWI4
05422560 Duck Creek at 110th Avenue at Davenport, IA   4.87 10 2,670 2016-09-30 10:15:00 WLCI4
05422600 Duck Creek at DC Golf Course at Davenport, IA 12 3.72 23 7,570 2016-09-30 10:45:00 DKII4
05448400 West Main Drainage Ditch 1 and 2 near Britt, IA   79.93

 

450 2016-09-30 10:15:00 BTDI4
05449500 Iowa River near Rowan, IA 12.5 11.57 2,580 8,460 2016-09-30 10:00:00 ROWI4
05451080 South Fork Iowa River near Blairsburg, IA   6.10 39 762 2016-09-30 10:00:00 BLII4
05451210 South Fork Iowa River NE of New Providence, IA   5.51 602 7,390 2016-09-30 10:45:00 NPVI4
05451500 Iowa River at Marshalltown, IA 19 18.09 10,200 42,000 2016-09-30 11:00:00 MIWI4
05451700 Timber Creek near Marshalltown, IA   5.40 489 12,000 2016-09-30 10:00:00 MTWI4
05451770 Iowa River at County Highway E49 near Tama, IA 12.5 13.21 11,900 26,700 2016-09-30 11:00:00 TMAI4
05451900 Richland Creek near Haven, IA   11.08 64 12,200 2016-09-30 10:00:00 HAVI4
05451955 Stein Creek near Clutier, IA   67.75

 

12,200 2016-09-30 10:30:00  
05452000 Salt Creek near Elberon, IA   7.72 266 36,600 2016-09-30 10:00:00 EBRI4
05452200 Walnut Creek near Hartwick, IA   2.44 35 8,580 2016-09-30 10:00:00 HRTI4
05452500 Iowa River near Belle Plaine, IA 15 16.04 8,140 43,000 2016-09-30 11:00:00  
05453000 Big Bear Creek at Ladora, IA 20 11.94 160 11,200 2016-09-30 10:00:00 LADI4
05453100 Iowa River at Marengo, IA 14 15.41 7,590 51,000 2016-09-30 11:00:00 MROI4
05453200 Price Creek at Amana, IA   80.48

 

5,080 2016-09-30 10:15:00  
05453520 Iowa River below Coralville Dam nr Coralville, IA   49.93 1,170 39,900 2016-09-30 11:00:00 CTWI4
05454000 Rapid Creek near Iowa City, IA 9 4.06 13 6,700 2016-09-30 10:00:00 IRCI4
05454090 Muddy Creek at Coralville, IA   2.40 5.4 2,920 2016-09-30 10:00:00 CMCI4
05454220 Clear Creek near Oxford, IA 10 3.10 59 6,000 2016-09-30 10:45:00 OXFI4
05454300 Clear Creek near Coralville, IA 11 2.39 87 10,200 2016-09-30 11:00:00 CRAI4
05454500 Iowa River at Iowa City, IA 22 10.76 1,150 70,000 2016-09-30 11:00:00 IOWI4
05455010 South Branch Ralston Creek at Iowa City, IA 7 1.87

 

1,070 2016-09-30 10:45:00  
05455100 Old Mans Creek near Iowa City, IA 12 3.10 141 14,600 2016-09-30 11:00:00 IOCI4
05455230 Deep River at Deep River, IA   67.38

 

6,200 2016-09-30 10:15:00  
05455500 English River at Kalona, IA 14 5.01 308 36,100 2016-09-30 11:00:00 KALI4
05455700 Iowa River near Lone Tree, IA 15 6.52 2,200 57,100 2016-09-30 10:00:00 LNTI4
05457440 Deer Creek near Carpenter, IA   79.60

 

11,800 2016-09-30 10:45:00  
05457505 Cedar River at Osage, IA 22 17.71

 

18,200 2016-09-30 09:45:00 OSGI4
05457700 Cedar River at Charles City, IA 12 6.68 3,800 34,600 2016-09-30 10:30:00 CCYI4
05458000 Little Cedar River near Ionia, IA 10 5.62 668 24,700 2016-09-30 10:45:00 IONI4
05458300 Cedar River at Waverly, IA 12 5.82 4,650 52,600 2016-09-30 10:15:00 WVLI4
05458500 Cedar River at Janesville, IA 13 6.76 7,690 53,400 2016-09-30 10:45:00 JANI4
05458900 West Fork Cedar River at Finchford, IA 17 13.33 5,430 31,900 2016-09-30 10:45:00 FNHI4
05459490 Spring Creek near Mason City, IA   81.73

 

5,340 2016-09-30 10:45:00  
05459500 Winnebago River at Mason City, IA 10 7.13 2,630 13,100 2016-09-30 10:30:00 MCWI4
05460000 Clear Lake at Clear Lake, IA   5.52

 

  2016-09-30 11:00:00 CLKI4
05460400 Shell Rock River near Rockford, IA   15.72

 

17,700 2016-09-30 10:45:00 RKFI4
05462000 Shell Rock River at Shell Rock, IA 13.5 12.17 8,670 60,400 2016-09-30 10:45:00 SHRI4
05463000 Beaver Creek at New Hartford, IA 12.5 6.85 1,190 25,900 2016-09-30 10:00:00 NHRI4
05463050 Cedar River at Cedar Falls, IA 88 90.40 24,200 51,200 2016-09-30 10:45:00 CEDI4
05463500 Black Hawk Creek at Hudson, IA 14 8.92 666 22,500 2016-09-30 10:45:00 HUDI4
05464000 Cedar River at Waterloo, IA 13 12.25 25,500 112,000 2016-09-30 11:00:00 ALOI4
05464220 Wolf Creek near Dysart, IA   3.67 450 15,700 2016-09-30 10:15:00 DYSI4
05464315 Cedar River at Vinton, IA   14.68 34,900 63,100 2016-09-30 10:15:00 VINI4
05464420 Cedar River at Blairs Ferry Road at Palo, IA   13.88 43,800 68,100 2016-09-30 10:15:00 PLOI4
05464500 Cedar River at Cedar Rapids, IA 12 15.46 49,300 140,000 2016-09-30 11:00:00 CIDI4
05464730 Cedar River below Indian Creek at Cedar Rapids, IA   18.28

 

  2016-09-30 10:30:00  
05464780 Cedar River at Cedar Bluff, IA   21.59 60,800 66,900 2016-09-30 10:00:00  
0546494140 WB Wapsinonoc Cr abv Baker Ave at West Branch, IA   4.83

 

  2016-09-30 11:00:00  
0546494150 Unnamed Trb to WB Wapsinonoc Cr at West Branch, IA   3.61

 

  2016-09-30 11:00:00  
0546494170 WB Wapsinonoc Cr at College St at West Branch, IA   2.70 2.4   2016-09-30 11:00:00  
05464942 Hoover Cr at Hoover Nat Hist Site, West Branch, IA   1.46 1.8 1,650 2016-09-30 10:45:00  
05465000 Cedar River near Conesville, IA 13 17.90 78,000 127,000 2016-09-30 11:00:00 CNEI4
05465500 Iowa River at Wapello, IA 20 27.19 76,600 188,000 2016-09-30 11:00:00 WAPI4
05465700 Iowa River at Oakville, IA 10 16.11 73,700 188,000 2016-09-30 11:00:00 OKVI4
05469860 Mud Lake Drainage Ditch 71 at Jewell, IA   81.95

 

3,700 2016-09-30 10:15:00  
05470000 South Skunk River near Ames, IA 12.5 5.12 763 14,800 2016-09-30 11:00:00 AMEI4
05470500 Squaw Creek at Ames, IA 10 2.76 364 24,300 2016-09-30 11:00:00 AMWI4
05471000 South Skunk River below Squaw Creek near Ames, IA 21.5 13.19 1,260 36,200 2016-09-30 10:00:00 AESI4
05471050 South Skunk River at Colfax, IA 18 11.17 2,260 24,000 2016-09-30 10:45:00 CFXI4
05471200 Indian Creek near Mingo, IA   5.89 520 23,500 2016-09-30 10:15:00 MGOI4
05471500 South Skunk River near Oskaloosa, IA 24.5 14.00 2,940 37,000 2016-09-30 10:30:00 OOAI4
05472390 Middle Creek near Lacey, IA   75.78

 

9,650 2016-09-30 11:00:00  
05472500 North Skunk River near Sigourney, IA 16 5.42 283 27,500 2016-09-30 10:30:00 SIGI4
05473400 Cedar Creek near Oakland Mills, IA   2.95 9.3 20,000 2016-09-30 10:30:00 OKMI4
05473450 Big Creek North of Mount Pleasant, IA   3.00 3.8 9,580 2016-09-30 10:45:00 MBCI4
05474000 Skunk River at Augusta, IA 15 6.47 6,300 66,800 2016-09-30 10:30:00 AGSI4
05476500 Des Moines River at Estherville, IA 8 3.73

 

16,000 2016-09-30 10:00:00 ESVI4
05476590 Des Moines River at Emmetsburg, IA 11 3.18 912 7,230 2016-09-30 10:15:00 EMTI4
05476735 Pilot Creek at County Hwy P15 near Rolfe, IA   4.40

 

  2016-09-30 10:15:00 RLFI4
05476750 Des Moines River at Humboldt, IA 10 6.18 2,810 19,000 2016-09-30 10:15:00 HBTI4
05478265 East Fork Des Moines River near Algona, IA 17 14.08 2,400 11,000 2016-09-30 10:15:00 AGNI4
05479000 East Fork Des Moines River at Dakota City, IA 20 13.77 4,400 22,000 2016-09-30 10:00:00 DAKI4
05480080 Lizard Creek near Fort Dodge, IA   6.22

 

  2016-09-30 10:15:00 FLZI4
05480500 Des Moines River at Fort Dodge, IA 10.5 8.07 9,140 36,800 2016-09-30 10:00:00 FODI4
05480820 Boone River near Goldfield, IA   15.83

 

6,370 2016-09-30 10:15:00 GLDI4
05480930 White Fox Creek at Clarion, IA   86.60

 

3,290 2016-09-30 10:45:00  
05481000 Boone River near Webster City, IA 14 7.23 3,740 21,500 2016-09-30 10:00:00 WBCI4
05481300 Des Moines River near Stratford, IA 21 13.90 13,500 58,300 2016-09-30 10:00:00 STRI4
05481510 Bluff Creek at Pilot Mound, IA   80.17

 

1,290 2016-09-30 10:15:00  
05481650 Des Moines River near Saylorville, IA   15.51 15,900 60,000 2016-09-30 10:00:00 SDTI4
05481950 Beaver Creek near Grimes, IA 14 5.28 417 14,300 2016-09-30 10:15:00 GRMI4
05482000 Des Moines River at 2nd Avenue at Des Moines, IA 23 20.29 16,500 60,200 2016-09-30 10:15:00 DMOI4
05482300 North Raccoon River near Sac City, IA 13 9.74 844 13,100 2016-09-30 10:15:00 SCRI4
05482315 Black Hawk Lake at Lake View, IA   7.79

 

  2016-09-30 10:15:00 BHLI4
05482430 North Raccoon River near Lanesboro, IA 15 11.13

 

  2016-09-30 10:15:00 LKCI4
05482500 North Raccoon River near Jefferson, IA 19 7.56 2,000 29,100 2016-09-30 10:15:00 EFWI4
05483318 Brushy Fork Creek near Templeton, IA   67.49

 

19,000 2016-09-30 10:00:00  
05483349 Middle Raccoon River Tributary at Carroll, IA   15.39

 

4,600 2016-09-30 10:15:00  
05483450 Middle Raccoon River near Bayard, IA   11.15 385 27,500 2016-09-30 10:15:00 BAYI4
05483470 Lake Panorama at Panora, IA   45.57

 

  2016-09-30 10:15:00 PNLI4
05483600 Middle Raccoon River at Panora, IA   5.14 437 22,400 2016-09-30 10:15:00 PANI4
05484000 South Raccoon River at Redfield, IA 20 3.86 803 44,000 2016-09-30 10:45:00 REDI4
05484500 Raccoon River at Van Meter, IA 17 6.74 5,270 70,100 2016-09-30 10:00:00 VNMI4
05484600 Raccoon River near West Des Moines, IA   31.17 1,020 2016-09-30 10:45:00 WDMI4
05484650 Raccoon River at 63rd Street at Des Moines, IA 36 26.24 4,100 66,000 2016-09-30 10:15:00 DMWI4
05484800 Walnut Creek at Des Moines, IA 14 3.55 52 12,500 2016-09-30 10:45:00 DOSI4
05484900 Raccoon River at Fleur Drive at Des Moines, IA 12 5.62 5,310 67,900 2016-09-30 10:45:00 DEMI4
05485500 Des Moines River blw Raccoon Riv at Des Moines, IA 24 21.06 19,600 116,000 2016-09-30 10:00:00 DESI4
05485605 Fourmile Creek near Ankeny, IA DS1   1.91 73 4,730 2016-09-30 10:15:00 ANKI4
05485640 Fourmile Creek at Des Moines, IA 12.5 4.40 75 9,620 2016-09-30 10:30:00 DFMI4
05486000 North River near Norwalk, IA 22 7.32 213 32,000 2016-09-30 10:15:00 NRWI4
05486490 Middle River near Indianola, IA 23 8.28 384 34,000 2016-09-30 10:15:00 IDNI4
05487470 South River near Ackworth, IA 29 6.36 151 38,100 2016-09-30 10:15:00 AKWI4
05487520 Des Moines River near Swan, IA   51.50 19,700 55,900 2016-09-30 10:15:00 SWNI4
05487980 White Breast Creek near Dallas, IA   6.17 32 37,300 2016-09-30 10:15:00 DLLI4
05488110 Des Moines River near Pella, IA   88.53 7,840 105,000 2016-09-30 10:15:00 RRDI4
05488200 English Creek near Knoxville, IA 21 7.71 2.6 28,000 2016-09-30 10:15:00 KECI4
05488500 Des Moines River near Tracy, IA 14 6.38 11,500 155,000 2016-09-30 10:15:00 TRCI4
05489000 Cedar Creek near Bussey, IA 25 4.89 9.8 96,000 2016-09-30 10:15:00 BSSI4
05489500 Des Moines River at Ottumwa, IA 11.5 6.58 16,600 140,000 2016-09-30 10:50:00 OTMI4
05490500 Des Moines River at Keosauqua, IA 22 16.03 21,400 146,000 2016-09-30 10:15:00 KEQI4
05494300 Fox River at Bloomfield, IA   2.34 0.01 13,100 2016-09-30 10:00:00 BMFI4
06483290 Rock River below Tom Creek at Rock Rapids, IA 13 9.13 585 33,800 2016-09-30 10:15:00 RAPI4
06483495 Burr Oak Creek near Perkins, IA   10.62

 

6,400 2016-09-30 10:45:00  
06483500 Rock River near Rock Valley, IA 16 6.82 1,240 60,600 2016-09-30 11:00:00 RKVI4
06485500 BIG SIOUX R AT AKRON,IA 16 9.20 2,230 108,000 2016-09-30 11:00:00 AKRI4
06485950 BIG SIOUX RIVER AT SIOUX CITY, IA 32 12.12 3,090 4,720 2016-09-30 10:30:00  
06486000 Missouri River at Sioux City, IA 30 11.16 25,500 441,000 2016-09-30 11:00:00 SSCN1
06599900 Perry Creek near Millnerville, IA 8 1.27

 

4,690 2016-09-30 10:45:00  
06599950 Perry Creek near Hinton, IA 28 16.14

 

6,410 2016-09-30 10:15:00  
06600000 Perry Creek at 38th Street at Sioux City, IA 24 6.38

 

9,600 2016-09-30 11:00:00 SIOI4
06600030 Little Floyd River near Sanborn, IA   81.64

 

214 2016-09-30 10:15:00  
06600100 Floyd River at Alton, IA 12 6.57 235 45,500 2016-09-30 11:00:00 ALTI4
06600500 Floyd River at James, IA 26 10.47 494 71,500 2016-09-30 11:00:00 JMEI4
06601200 Missouri River at Decatur, NE 35 20.02 26,700 191,000 2016-09-30 11:00:00 DCTN1
06602020 West Fork Ditch at Hornick, IA 20 7.35 193 12,400 2016-09-30 11:00:00 HOKI4
06602190 Elliott Creek at Lawton, IA   72.72

 

3,150 2016-09-30 10:15:00  
06602400 Monona-Harrison Ditch near Turin, IA 23 6.07 502 21,000 2016-09-30 11:00:00 TRNI4
06604000 Spirit Lake near Orleans, IA 17 14.30

 

  2016-09-30 10:15:00 SLKI4
06604200 West Okoboji Lake at Lakeside Lab near Milford, IA 7.5 4.54

 

  2016-09-30 10:45:00 OBJI4
06605000 Ocheyedan River near Spencer, IA 8 3.68 320 26,000 2016-09-30 10:45:00 SPOI4
06605750 Willow Creek near Cornell, IA   81.90

 

4,200 2016-09-30 10:15:00  
06605850 Little Sioux River at Linn Grove, IA 18 16.78 1,280 22,500 2016-09-30 11:00:00 LNNI4
06606600 Little Sioux River at Correctionville, IA 19 8.39 2,210 29,800 2016-09-30 11:00:00 CRRI4
06607200 Maple River at Mapleton, IA 21 6.05 455 20,800 2016-09-30 11:00:00 MAPI4
06607500 Little Sioux River near Turin, IA 25 9.66 2,610 32,000 2016-09-30 11:00:00 TURI4
06608500 Soldier River at Pisgah, IA 28 3.71 224 34,700 2016-09-30 11:00:00 PSGI4
06609100 Missouri River at Blair, NE 26.5 13.51

 

  2016-09-30 11:00:00  
06609500 Boyer River at Logan, IA 21 5.11 730 33,600 2016-09-30 11:00:00 LGNI4
06609560 Willow Creek near Soldier, IA 81.5 66.80

 

6,840 2016-09-30 10:00:00  
06610000 Missouri River at Omaha, NE 29 14.58 31,900 396,000 2016-09-30 11:00:00 OMHN1
06610505 Missouri River near Council Bluffs, IA   15.98

 

  2009-09-30 23:30:00  
06610657 Little Pony Creek at Council Bluffs, IA   1.53

 

  2009-09-30 23:45:00  
06805600 Missouri River at Plattsmouth, NE 26 15.22

 

  2016-09-30 10:00:00  
06807000 Missouri River at Nebraska City, NE 18 10.28 40,100 414,000 2016-09-30 11:00:00 NEBN1
06807410 West Nishnabotna River at Hancock, IA 14 3.83 659 30,100 2016-09-30 11:00:00 HNKI4
06808500 West Nishnabotna River at Randolph, IA 19 10.45 1,670 40,800 2016-09-30 11:00:00 RDPI4
06809210 East Nishnabotna River near Atlantic, IA 19 4.24 569 41,400 2016-09-30 11:00:00 ATCI4
06809500 East Nishnabotna River at Red Oak, IA 18 7.91 999 60,500 2016-09-30 11:00:00 RDOI4
06810000 Nishnabotna River above Hamburg, IA 25 12.68 3,430 65,100 2016-09-30 11:00:00 HMBI4
06810030 Main Ditch Number Six at Levee Rd near Hamburg, IA   899.68

 

  2016-09-30 10:15:00  
06810070 Missouri River at Brownville, NE 33 26.28

 

  2016-09-30 10:15:00 BRON1
06811760 Tarkio River near Elliott, IA   3.10

 

5,000 2016-09-30 10:45:00  
06811800 East Tarkio Creek near Stanton, IA   0.75

 

4,790 2016-09-30 10:30:00  
06811875 Snake Creek near Yorktown, IA 92.5 80.65

 

3,080 2016-09-30 10:45:00  
06813500 Missouri River at Rulo, NE 17 10.08 44,800 358,000 2016-09-30 10:30:00 RULN1
06817000 Nodaway River at Clarinda, IA 23 11.33 571 47,900 2016-09-30 10:15:00 ICLI4
06819185 East Fork 102 River at Bedford, IA 24 10.97 23 10,300 2016-09-30 10:45:00 BDFI4
06898000 Thompson River at Davis City, IA 12 2.01 397 57,000 2016-09-30 10:00:00 DVSI4
06903400 Chariton River near Chariton, IA 19.5 4.82 6.1 37,700 2016-09-30 10:45:00 CHTI4
06903700 South Fork Chariton River near Promise City, IA 25 2.92 2.5 70,600 2016-09-30 10:45:00 PRMI4
06903880 Rathbun Lake near Rathbun, IA   905.00

 

  2016-09-30 10:45:00 RADI4
06903900 Chariton River near Rathbun, IA   2.17 7.5 21,800 2016-09-30 10:00:00 RABI4
06904010 Chariton River near Moulton, IA 36 18.22 29 21,200 2016-09-30 10:45:00 MOLI4